AAY972 KPIE-KEYW
Flight info
| Callsign | AAY972 |
|---|---|
| Flight time | 0h 37m |
| Altitude | 29000 |
| Route | SABEE KRAKN1 |
| Aircraft | A320/M-SDE3FGHIRWY/LB1 |
Departure
| Time | 2026-04-27 23:00 |
|---|---|
| Airport | St. Petersburg Clearwater International Airport (KPIE) |
Arrival
| Time | 2026-04-27 23:38 |
|---|---|
| Airport | Key West International Airport (KEYW) |
| Time | Latitude | Longitude | Altitude | Speed | Heading |
|---|---|---|---|---|---|
| 2026-04-27 23:00 | 27.82435 | -82.58546 | 9351 ft | 303 kts | 158° |
| 2026-04-27 23:00 | 27.80507 | -82.57529 | 10181 ft | 310 kts | 157° |
| 2026-04-27 23:01 | 27.78480 | -82.56441 | 10534 ft | 334 kts | 156° |
| 2026-04-27 23:01 | 27.76331 | -82.55278 | 11068 ft | 349 kts | 156° |
| 2026-04-27 23:01 | 27.74121 | -82.54076 | 11817 ft | 355 kts | 156° |
| 2026-04-27 23:01 | 27.71879 | -82.52857 | 12621 ft | 360 kts | 156° |
| 2026-04-27 23:02 | 27.69633 | -82.51643 | 13364 ft | 366 kts | 156° |
| 2026-04-27 23:02 | 27.67317 | -82.50397 | 14079 ft | 371 kts | 156° |
| 2026-04-27 23:02 | 27.64973 | -82.49140 | 14766 ft | 375 kts | 156° |
| 2026-04-27 23:02 | 27.62604 | -82.47870 | 15453 ft | 379 kts | 156° |
| 2026-04-27 23:03 | 27.60211 | -82.46591 | 16147 ft | 382 kts | 156° |
| 2026-04-27 23:03 | 27.57795 | -82.45300 | 16844 ft | 386 kts | 156° |
| 2026-04-27 23:03 | 27.55358 | -82.43996 | 17537 ft | 389 kts | 156° |
| 2026-04-27 23:03 | 27.52900 | -82.42679 | 18220 ft | 393 kts | 156° |
| 2026-04-27 23:04 | 27.50420 | -82.41350 | 18814 ft | 397 kts | 156° |
| 2026-04-27 23:04 | 27.47954 | -82.40028 | 19397 ft | 400 kts | 156° |
| 2026-04-27 23:04 | 27.45434 | -82.38675 | 19993 ft | 403 kts | 156° |
| 2026-04-27 23:04 | 27.42891 | -82.37311 | 20582 ft | 407 kts | 156° |
| 2026-04-27 23:05 | 27.40325 | -82.35936 | 21170 ft | 410 kts | 156° |
| 2026-04-27 23:05 | 27.37730 | -82.34551 | 21753 ft | 414 kts | 156° |
| 2026-04-27 23:05 | 27.35115 | -82.33158 | 22338 ft | 418 kts | 156° |
| 2026-04-27 23:05 | 27.32474 | -82.31755 | 22922 ft | 422 kts | 156° |
| 2026-04-27 23:06 | 27.29808 | -82.30339 | 23493 ft | 426 kts | 156° |
| 2026-04-27 23:06 | 27.27119 | -82.28910 | 23987 ft | 429 kts | 156° |
| 2026-04-27 23:06 | 27.24410 | -82.27471 | 24444 ft | 433 kts | 156° |
| 2026-04-27 23:06 | 27.21716 | -82.26037 | 24902 ft | 436 kts | 156° |
| 2026-04-27 23:07 | 27.18962 | -82.24570 | 25351 ft | 439 kts | 156° |
| 2026-04-27 23:07 | 27.16195 | -82.23093 | 25798 ft | 442 kts | 156° |
| 2026-04-27 23:07 | 27.13408 | -82.21607 | 26237 ft | 445 kts | 156° |
| 2026-04-27 23:07 | 27.10595 | -82.20121 | 26670 ft | 447 kts | 158° |
| 2026-04-27 23:08 | 27.07652 | -82.18984 | 27079 ft | 448 kts | 168° |
| 2026-04-27 23:08 | 27.04594 | -82.18330 | 27493 ft | 449 kts | 173° |
| 2026-04-27 23:08 | 27.01505 | -82.17739 | 27904 ft | 452 kts | 173° |
| 2026-04-27 23:08 | 26.98397 | -82.17141 | 28312 ft | 455 kts | 173° |
| 2026-04-27 23:09 | 26.95272 | -82.16535 | 28690 ft | 457 kts | 172° |
| 2026-04-27 23:09 | 26.92169 | -82.15930 | 28995 ft | 460 kts | 172° |
| 2026-04-27 23:09 | 26.85866 | -82.14704 | 29059 ft | 460 kts | 172° |
| 2026-04-27 23:10 | 26.79561 | -82.13485 | 29060 ft | 460 kts | 173° |
| 2026-04-27 23:10 | 26.73261 | -82.12240 | 29056 ft | 460 kts | 171° |
| 2026-04-27 23:11 | 26.66998 | -82.10790 | 29043 ft | 460 kts | 170° |
| 2026-04-27 23:11 | 26.60781 | -82.09268 | 29044 ft | 460 kts | 170° |
| 2026-04-27 23:12 | 26.54526 | -82.07764 | 29043 ft | 460 kts | 169° |
| 2026-04-27 23:12 | 26.48478 | -82.05352 | 29042 ft | 463 kts | 159° |
| 2026-04-27 23:13 | 26.42531 | -82.02644 | 29044 ft | 463 kts | 159° |
| 2026-04-27 23:13 | 26.36562 | -81.99932 | 29046 ft | 463 kts | 159° |
| 2026-04-27 23:14 | 26.30636 | -81.97235 | 29061 ft | 464 kts | 159° |
| 2026-04-27 23:14 | 26.24665 | -81.94509 | 29053 ft | 464 kts | 159° |
| 2026-04-27 23:15 | 26.18689 | -81.91789 | 29063 ft | 464 kts | 159° |
| 2026-04-27 23:15 | 26.12708 | -81.89081 | 29061 ft | 464 kts | 159° |
| 2026-04-27 23:16 | 26.06771 | -81.86393 | 29074 ft | 464 kts | 159° |
| 2026-04-27 23:16 | 26.00792 | -81.83686 | 29065 ft | 464 kts | 160° |
| 2026-04-27 23:17 | 25.94808 | -81.80983 | 29075 ft | 464 kts | 159° |
| 2026-04-27 23:17 | 25.88859 | -81.78191 | 29065 ft | 465 kts | 152° |
| 2026-04-27 23:18 | 25.83335 | -81.74423 | 29067 ft | 466 kts | 149° |
| 2026-04-27 23:18 | 25.77859 | -81.70655 | 29064 ft | 466 kts | 149° |
| 2026-04-27 23:19 | 25.72344 | -81.66866 | 29062 ft | 466 kts | 149° |
| 2026-04-27 23:19 | 25.66850 | -81.63097 | 28833 ft | 456 kts | 149° |
| 2026-04-27 23:20 | 25.64186 | -81.61267 | 27919 ft | 447 kts | 149° |
| 2026-04-27 23:20 | 25.61563 | -81.59469 | 26987 ft | 440 kts | 149° |
| 2026-04-27 23:20 | 25.58976 | -81.57696 | 26087 ft | 434 kts | 149° |
| 2026-04-27 23:20 | 25.56461 | -81.55973 | 25235 ft | 428 kts | 149° |
| 2026-04-27 23:21 | 25.53939 | -81.54258 | 24396 ft | 422 kts | 152° |
| 2026-04-27 23:21 | 25.51261 | -81.53034 | 23600 ft | 413 kts | 168° |
| 2026-04-27 23:21 | 25.48456 | -81.52672 | 22672 ft | 402 kts | 185° |
| 2026-04-27 23:21 | 25.45739 | -81.53142 | 21793 ft | 390 kts | 201° |
| 2026-04-27 23:22 | 25.43241 | -81.54221 | 20912 ft | 383 kts | 206° |
| 2026-04-27 23:22 | 25.40798 | -81.55355 | 20066 ft | 379 kts | 206° |
| 2026-04-27 23:22 | 25.38381 | -81.56477 | 19251 ft | 374 kts | 206° |
| 2026-04-27 23:22 | 25.35994 | -81.57586 | 18475 ft | 370 kts | 206° |
| 2026-04-27 23:23 | 25.33667 | -81.58665 | 17629 ft | 366 kts | 206° |
| 2026-04-27 23:23 | 25.31336 | -81.59744 | 16793 ft | 361 kts | 206° |
| 2026-04-27 23:23 | 25.29033 | -81.60806 | 16003 ft | 357 kts | 206° |
| 2026-04-27 23:23 | 25.26754 | -81.61856 | 15235 ft | 352 kts | 206° |
| 2026-04-27 23:24 | 25.24514 | -81.62892 | 14650 ft | 343 kts | 206° |
| 2026-04-27 23:24 | 25.22356 | -81.63888 | 14253 ft | 330 kts | 206° |
| 2026-04-27 23:24 | 25.20277 | -81.64845 | 13868 ft | 318 kts | 206° |
| 2026-04-27 23:24 | 25.18248 | -81.65778 | 13453 ft | 316 kts | 206° |
| 2026-04-27 23:25 | 25.16222 | -81.66713 | 13069 ft | 315 kts | 206° |
| 2026-04-27 23:25 | 25.14228 | -81.67636 | 12690 ft | 314 kts | 206° |
| 2026-04-27 23:25 | 25.12216 | -81.68568 | 12304 ft | 314 kts | 206° |
| 2026-04-27 23:25 | 25.10204 | -81.69498 | 11918 ft | 313 kts | 206° |
| 2026-04-27 23:26 | 25.08195 | -81.70422 | 11514 ft | 313 kts | 205° |
| 2026-04-27 23:26 | 25.06188 | -81.71343 | 11120 ft | 312 kts | 205° |
| 2026-04-27 23:26 | 25.04185 | -81.72264 | 10713 ft | 312 kts | 205° |
| 2026-04-27 23:26 | 25.02194 | -81.73180 | 10402 ft | 308 kts | 205° |
| 2026-04-27 23:27 | 25.00213 | -81.74089 | 10013 ft | 307 kts | 205° |
| 2026-04-27 23:27 | 24.98252 | -81.74990 | 9613 ft | 305 kts | 205° |
| 2026-04-27 23:27 | 24.96326 | -81.75876 | 9259 ft | 302 kts | 204° |
| 2026-04-27 23:27 | 24.94402 | -81.76758 | 8935 ft | 298 kts | 204° |
| 2026-04-27 23:28 | 24.92497 | -81.77631 | 8619 ft | 295 kts | 204° |
| 2026-04-27 23:28 | 24.90605 | -81.78497 | 8304 ft | 294 kts | 203° |
| 2026-04-27 23:28 | 24.88726 | -81.79363 | 7992 ft | 292 kts | 204° |
| 2026-04-27 23:28 | 24.86966 | -81.80463 | 7684 ft | 291 kts | 213° |
| 2026-04-27 23:29 | 24.85272 | -81.81673 | 7377 ft | 289 kts | 213° |
| 2026-04-27 23:29 | 24.83584 | -81.82876 | 7069 ft | 289 kts | 212° |
| 2026-04-27 23:29 | 24.81899 | -81.84072 | 6761 ft | 288 kts | 212° |
| 2026-04-27 23:29 | 24.80243 | -81.85242 | 6459 ft | 286 kts | 212° |
| 2026-04-27 23:30 | 24.78575 | -81.86420 | 6126 ft | 285 kts | 212° |
| 2026-04-27 23:30 | 24.76909 | -81.87598 | 5834 ft | 284 kts | 213° |
| 2026-04-27 23:30 | 24.75251 | -81.88770 | 5530 ft | 282 kts | 213° |
| 2026-04-27 23:30 | 24.73600 | -81.89936 | 5230 ft | 281 kts | 213° |
| 2026-04-27 23:31 | 24.71961 | -81.91095 | 4926 ft | 279 kts | 213° |
| 2026-04-27 23:31 | 24.70329 | -81.92248 | 4625 ft | 278 kts | 213° |
| 2026-04-27 23:31 | 24.68737 | -81.93370 | 4504 ft | 264 kts | 213° |
| 2026-04-27 23:31 | 24.67232 | -81.94432 | 4399 ft | 250 kts | 213° |
| 2026-04-27 23:32 | 24.65822 | -81.95429 | 4295 ft | 238 kts | 213° |
| 2026-04-27 23:32 | 24.64442 | -81.96355 | 4192 ft | 228 kts | 205° |
| 2026-04-27 23:32 | 24.62943 | -81.96849 | 4072 ft | 226 kts | 186° |
| 2026-04-27 23:32 | 24.61381 | -81.96880 | 3810 ft | 223 kts | 178° |
| 2026-04-27 23:33 | 24.59842 | -81.96852 | 3570 ft | 220 kts | 178° |
| 2026-04-27 23:33 | 24.58325 | -81.96829 | 3347 ft | 217 kts | 178° |
| 2026-04-27 23:33 | 24.56851 | -81.96641 | 3119 ft | 211 kts | 155° |
| 2026-04-27 23:33 | 24.55764 | -81.95661 | 2910 ft | 201 kts | 118° |
| 2026-04-27 23:34 | 24.55417 | -81.94235 | 2714 ft | 191 kts | 82° |
| 2026-04-27 23:34 | 24.55605 | -81.92819 | 2519 ft | 190 kts | 84° |
| 2026-04-27 23:34 | 24.55641 | -81.91371 | 2341 ft | 191 kts | 88° |
| 2026-04-27 23:34 | 24.55617 | -81.89917 | 2143 ft | 190 kts | 90° |
| 2026-04-27 23:35 | 24.55592 | -81.88466 | 1957 ft | 190 kts | 89° |
| 2026-04-27 23:35 | 24.55574 | -81.87077 | 1800 ft | 174 kts | 88° |
| 2026-04-27 23:35 | 24.55565 | -81.85802 | 1606 ft | 160 kts | 87° |
| 2026-04-27 23:35 | 24.55563 | -81.84625 | 1430 ft | 149 kts | 86° |
| 2026-04-27 23:36 | 24.55565 | -81.83516 | 1236 ft | 141 kts | 87° |
| 2026-04-27 23:36 | 24.55567 | -81.82462 | 1113 ft | 136 kts | 86° |
| 2026-04-27 23:36 | 24.55572 | -81.81440 | 1030 ft | 136 kts | 86° |
| 2026-04-27 23:36 | 24.55577 | -81.80399 | 839 ft | 137 kts | 86° |
| 2026-04-27 23:37 | 24.55587 | -81.79349 | 616 ft | 139 kts | 87° |
| 2026-04-27 23:37 | 24.55590 | -81.78300 | 397 ft | 136 kts | 86° |
| 2026-04-27 23:37 | 24.55599 | -81.77259 | 168 ft | 136 kts | 86° |
| 2026-04-27 23:37 | 24.55611 | -81.76258 | 14 ft | 127 kts | 85° |
| 2026-04-27 23:38 | 24.55624 | -81.75522 | 14 ft | 51 kts | 89° |
| 2026-04-27 23:38 | 24.55622 | -81.75275 | 13 ft | 12 kts | 94° |
| 2026-04-27 23:38 | 24.55584 | -81.75240 | 13 ft | 7 kts | 174° |
| 2026-04-27 23:38 | 24.55537 | -81.75253 | 13 ft | 7 kts | 229° |
| 2026-04-27 23:39 | 24.55532 | -81.75303 | 13 ft | 6 kts | 269° |
| 2026-04-27 23:39 | 24.55532 | -81.75349 | 13 ft | 6 kts | 269° |
| 2026-04-27 23:39 | 24.55531 | -81.75370 | 13 ft | 0 kts | 265° |
| 2026-04-27 23:40 | 24.55511 | -81.75384 | 15 ft | 6 kts | 187° |
| 2026-04-27 23:40 | 24.55462 | -81.75378 | 12 ft | 3 kts | 180° |
| 2026-04-27 23:40 | 24.55455 | -81.75378 | 12 ft | 0 kts | 180° |
| 2026-04-27 23:40 | 24.55448 | -81.75378 | 12 ft | 1 kts | 180° |
| 2026-04-27 23:41 | 24.55442 | -81.75378 | 12 ft | 1 kts | 180° |
| 2026-04-27 23:41 | 24.55441 | -81.75378 | 12 ft | 0 kts | 180° |